sensor_id;sensor_type;location;lat;lon;timestamp;P1;durP1;ratioP1;P2;durP2;ratioP2
55465;SDS011;41329;41.594;23.810;2023-06-04T00:01:54;7.72;;;3.53;;
55465;SDS011;41329;41.594;23.810;2023-06-04T00:04:20;6.00;;;3.80;;
55465;SDS011;41329;41.594;23.810;2023-06-04T00:06:47;3.90;;;3.50;;
55465;SDS011;41329;41.594;23.810;2023-06-04T00:09:12;5.47;;;4.03;;
55465;SDS011;41329;41.594;23.810;2023-06-04T00:11:38;5.28;;;4.78;;
55465;SDS011;41329;41.594;23.810;2023-06-04T00:14:03;4.22;;;3.80;;
55465;SDS011;41329;41.594;23.810;2023-06-04T00:16:28;4.70;;;4.20;;
55465;SDS011;41329;41.594;23.810;2023-06-04T00:18:54;4.13;;;3.83;;
55465;SDS011;41329;41.594;23.810;2023-06-04T00:21:19;7.88;;;3.90;;
55465;SDS011;41329;41.594;23.810;2023-06-04T00:23:45;4.45;;;4.15;;
55465;SDS011;41329;41.594;23.810;2023-06-04T00:26:10;4.25;;;3.83;;
55465;SDS011;41329;41.594;23.810;2023-06-04T00:28:35;4.45;;;4.15;;
55465;SDS011;41329;41.594;23.810;2023-06-04T00:31:04;6.45;;;4.35;;
55465;SDS011;41329;41.594;23.810;2023-06-04T00:33:30;4.43;;;4.05;;
55465;SDS011;41329;41.594;23.810;2023-06-04T00:35:56;6.07;;;3.75;;
55465;SDS011;41329;41.594;23.810;2023-06-04T00:38:21;4.22;;;3.83;;
55465;SDS011;41329;41.594;23.810;2023-06-04T00:40:46;5.75;;;4.10;;
55465;SDS011;41329;41.594;23.810;2023-06-04T00:43:12;5.88;;;3.78;;
55465;SDS011;41329;41.594;23.810;2023-06-04T00:45:38;4.32;;;3.40;;
55465;SDS011;41329;41.594;23.810;2023-06-04T00:48:04;6.03;;;3.40;;
55465;SDS011;41329;41.594;23.810;2023-06-04T00:50:30;4.32;;;3.38;;
55465;SDS011;41329;41.594;23.810;2023-06-04T00:52:58;8.23;;;4.50;;
55465;SDS011;41329;41.594;23.810;2023-06-04T00:55:24;14.88;;;4.63;;
55465;SDS011;41329;41.594;23.810;2023-06-04T00:57:50;5.65;;;4.65;;
55465;SDS011;41329;41.594;23.810;2023-06-04T01:00:15;6.00;;;4.05;;
55465;SDS011;41329;41.594;23.810;2023-06-04T01:02:42;6.63;;;3.80;;
55465;SDS011;41329;41.594;23.810;2023-06-04T01:05:21;5.10;;;4.65;;
55465;SDS011;41329;41.594;23.810;2023-06-04T01:07:48;5.00;;;4.60;;
55465;SDS011;41329;41.594;23.810;2023-06-04T01:10:15;6.07;;;5.68;;
55465;SDS011;41329;41.594;23.810;2023-06-04T01:12:41;6.28;;;5.68;;
55465;SDS011;41329;41.594;23.810;2023-06-04T01:15:07;5.60;;;5.18;;
55465;SDS011;41329;41.594;23.810;2023-06-04T01:23:14;4.43;;;4.03;;
55465;SDS011;41329;41.594;23.810;2023-06-04T01:25:49;5.28;;;4.07;;
55465;SDS011;41329;41.594;23.810;2023-06-04T01:28:16;3.85;;;3.47;;
55465;SDS011;41329;41.594;23.810;2023-06-04T01:30:43;5.00;;;3.75;;
55465;SDS011;41329;41.594;23.810;2023-06-04T01:33:14;5.05;;;4.55;;
55465;SDS011;41329;41.594;23.810;2023-06-04T01:35:41;3.58;;;3.38;;
55465;SDS011;41329;41.594;23.810;2023-06-04T01:38:07;4.28;;;3.90;;
55465;SDS011;41329;41.594;23.810;2023-06-04T01:40:32;4.32;;;4.03;;
55465;SDS011;41329;41.594;23.810;2023-06-04T01:42:58;4.72;;;4.25;;
55465;SDS011;41329;41.594;23.810;2023-06-04T01:45:25;4.70;;;4.30;;
55465;SDS011;41329;41.594;23.810;2023-06-04T01:47:51;5.20;;;4.38;;
55465;SDS011;41329;41.594;23.810;2023-06-04T01:50:17;4.15;;;3.72;;
55465;SDS011;41329;41.594;23.810;2023-06-04T01:52:43;3.97;;;3.63;;
55465;SDS011;41329;41.594;23.810;2023-06-04T01:55:10;5.55;;;3.72;;
55465;SDS011;41329;41.594;23.810;2023-06-04T01:57:38;6.03;;;4.07;;
55465;SDS011;41329;41.594;23.810;2023-06-04T02:00:05;4.32;;;4.03;;
55465;SDS011;41329;41.594;23.810;2023-06-04T02:02:33;5.28;;;4.13;;
55465;SDS011;41329;41.594;23.810;2023-06-04T02:05:00;5.88;;;3.58;;
55465;SDS011;41329;41.594;23.810;2023-06-04T02:07:26;5.18;;;4.10;;
55465;SDS011;41329;41.594;23.810;2023-06-04T02:09:51;4.57;;;4.07;;
55465;SDS011;41329;41.594;23.810;2023-06-04T02:12:17;4.65;;;4.25;;
55465;SDS011;41329;41.594;23.810;2023-06-04T02:14:43;4.40;;;3.88;;
55465;SDS011;41329;41.594;23.810;2023-06-04T02:17:10;5.40;;;5.00;;
55465;SDS011;41329;41.594;23.810;2023-06-04T02:19:41;5.53;;;5.05;;
55465;SDS011;41329;41.594;23.810;2023-06-04T02:22:15;5.72;;;4.95;;
55465;SDS011;41329;41.594;23.810;2023-06-04T02:24:41;6.38;;;5.82;;
55465;SDS011;41329;41.594;23.810;2023-06-04T02:27:07;9.27;;;6.22;;
55465;SDS011;41329;41.594;23.810;2023-06-04T02:29:33;6.43;;;5.43;;
55465;SDS011;41329;41.594;23.810;2023-06-04T02:31:59;5.75;;;5.35;;
55465;SDS011;41329;41.594;23.810;2023-06-04T02:34:24;4.85;;;4.55;;
55465;SDS011;41329;41.594;23.810;2023-06-04T02:36:50;6.05;;;5.65;;
55465;SDS011;41329;41.594;23.810;2023-06-04T02:39:16;5.30;;;4.85;;
55465;SDS011;41329;41.594;23.810;2023-06-04T02:41:42;5.95;;;5.55;;
55465;SDS011;41329;41.594;23.810;2023-06-04T02:44:07;8.95;;;4.35;;
55465;SDS011;41329;41.594;23.810;2023-06-04T02:46:32;5.45;;;4.88;;
55465;SDS011;41329;41.594;23.810;2023-06-04T02:48:58;5.50;;;5.07;;
55465;SDS011;41329;41.594;23.810;2023-06-04T02:51:24;6.88;;;5.47;;
55465;SDS011;41329;41.594;23.810;2023-06-04T02:53:50;6.47;;;6.05;;
55465;SDS011;41329;41.594;23.810;2023-06-04T02:56:15;7.05;;;6.50;;
55465;SDS011;41329;41.594;23.810;2023-06-04T02:58:53;8.85;;;8.18;;
55465;SDS011;41329;41.594;23.810;2023-06-04T03:01:21;6.28;;;5.78;;
55465;SDS011;41329;41.594;23.810;2023-06-04T03:03:51;6.22;;;5.68;;
55465;SDS011;41329;41.594;23.810;2023-06-04T03:06:18;4.22;;;4.03;;
55465;SDS011;41329;41.594;23.810;2023-06-04T03:08:48;5.05;;;4.65;;
55465;SDS011;41329;41.594;23.810;2023-06-04T03:11:18;5.22;;;4.72;;
55465;SDS011;41329;41.594;23.810;2023-06-04T03:13:47;6.45;;;5.18;;
55465;SDS011;41329;41.594;23.810;2023-06-04T03:16:13;6.47;;;6.03;;
55465;SDS011;41329;41.594;23.810;2023-06-04T03:18:42;6.72;;;6.32;;
55465;SDS011;41329;41.594;23.810;2023-06-04T03:21:08;7.15;;;6.45;;
55465;SDS011;41329;41.594;23.810;2023-06-04T03:23:34;9.38;;;8.55;;
55465;SDS011;41329;41.594;23.810;2023-06-04T03:26:00;9.15;;;8.57;;
55465;SDS011;41329;41.594;23.810;2023-06-04T03:28:27;9.27;;;8.65;;
55465;SDS011;41329;41.594;23.810;2023-06-04T03:30:52;9.25;;;8.65;;
55465;SDS011;41329;41.594;23.810;2023-06-04T03:33:18;10.23;;;8.98;;
55465;SDS011;41329;41.594;23.810;2023-06-04T03:35:43;10.98;;;9.10;;
55465;SDS011;41329;41.594;23.810;2023-06-04T03:38:08;10.45;;;9.85;;
55465;SDS011;41329;41.594;23.810;2023-06-04T03:40:34;9.90;;;9.27;;
55465;SDS011;41329;41.594;23.810;2023-06-04T03:42:59;9.80;;;9.05;;
55465;SDS011;41329;41.594;23.810;2023-06-04T03:45:25;10.13;;;9.18;;
55465;SDS011;41329;41.594;23.810;2023-06-04T03:47:51;13.98;;;9.80;;
55465;SDS011;41329;41.594;23.810;2023-06-04T03:50:17;11.57;;;8.98;;
55465;SDS011;41329;41.594;23.810;2023-06-04T03:52:43;9.70;;;9.10;;
55465;SDS011;41329;41.594;23.810;2023-06-04T03:55:09;10.75;;;9.85;;
55465;SDS011;41329;41.594;23.810;2023-06-04T03:57:36;12.68;;;10.40;;
55465;SDS011;41329;41.594;23.810;2023-06-04T04:00:03;12.80;;;9.43;;
55465;SDS011;41329;41.594;23.810;2023-06-04T04:02:41;10.55;;;8.18;;
55465;SDS011;41329;41.594;23.810;2023-06-04T04:05:07;8.35;;;7.85;;
55465;SDS011;41329;41.594;23.810;2023-06-04T04:07:33;14.05;;;8.05;;
55465;SDS011;41329;41.594;23.810;2023-06-04T04:09:58;7.53;;;7.10;;
55465;SDS011;41329;41.594;23.810;2023-06-04T04:12:24;7.53;;;6.97;;
55465;SDS011;41329;41.594;23.810;2023-06-04T04:14:49;7.97;;;7.18;;
55465;SDS011;41329;41.594;23.810;2023-06-04T04:17:15;7.28;;;6.78;;
55465;SDS011;41329;41.594;23.810;2023-06-04T04:19:40;8.82;;;8.13;;
55465;SDS011;41329;41.594;23.810;2023-06-04T04:22:06;8.73;;;7.95;;
55465;SDS011;41329;41.594;23.810;2023-06-04T04:24:31;7.97;;;7.57;;
55465;SDS011;41329;41.594;23.810;2023-06-04T04:26:59;6.93;;;6.47;;
55465;SDS011;41329;41.594;23.810;2023-06-04T04:29:25;7.97;;;6.93;;
55465;SDS011;41329;41.594;23.810;2023-06-04T04:31:53;7.88;;;7.20;;
55465;SDS011;41329;41.594;23.810;2023-06-04T04:34:22;10.93;;;7.82;;
55465;SDS011;41329;41.594;23.810;2023-06-04T04:36:50;8.20;;;7.78;;
55465;SDS011;41329;41.594;23.810;2023-06-04T04:39:18;7.13;;;6.63;;
55465;SDS011;41329;41.594;23.810;2023-06-04T04:41:45;8.90;;;8.20;;
55465;SDS011;41329;41.594;23.810;2023-06-04T04:44:11;7.80;;;7.25;;
55465;SDS011;41329;41.594;23.810;2023-06-04T04:46:36;7.55;;;7.07;;
55465;SDS011;41329;41.594;23.810;2023-06-04T04:49:02;9.40;;;8.68;;
55465;SDS011;41329;41.594;23.810;2023-06-04T04:51:27;7.90;;;7.40;;
55465;SDS011;41329;41.594;23.810;2023-06-04T04:53:52;10.80;;;8.35;;
55465;SDS011;41329;41.594;23.810;2023-06-04T04:56:19;9.40;;;8.90;;
55465;SDS011;41329;41.594;23.810;2023-06-04T04:58:45;9.70;;;9.20;;
55465;SDS011;41329;41.594;23.810;2023-06-04T05:01:10;11.27;;;10.25;;
55465;SDS011;41329;41.594;23.810;2023-06-04T05:03:36;12.05;;;11.15;;
55465;SDS011;41329;41.594;23.810;2023-06-04T05:06:01;11.20;;;10.50;;
55465;SDS011;41329;41.594;23.810;2023-06-04T05:08:26;11.07;;;10.38;;
55465;SDS011;41329;41.594;23.810;2023-06-04T05:10:52;13.05;;;11.75;;
55465;SDS011;41329;41.594;23.810;2023-06-04T05:13:17;12.15;;;11.35;;
55465;SDS011;41329;41.594;23.810;2023-06-04T05:15:43;13.25;;;12.15;;
55465;SDS011;41329;41.594;23.810;2023-06-04T05:18:08;12.65;;;11.50;;
55465;SDS011;41329;41.594;23.810;2023-06-04T05:20:34;12.15;;;11.30;;
55465;SDS011;41329;41.594;23.810;2023-06-04T05:23:02;11.57;;;10.75;;
55465;SDS011;41329;41.594;23.810;2023-06-04T05:25:29;10.45;;;9.85;;
55465;SDS011;41329;41.594;23.810;2023-06-04T05:27:55;10.20;;;9.35;;
55465;SDS011;41329;41.594;23.810;2023-06-04T05:30:21;11.00;;;10.23;;
55465;SDS011;41329;41.594;23.810;2023-06-04T05:32:47;10.60;;;9.75;;
55465;SDS011;41329;41.594;23.810;2023-06-04T05:35:15;10.20;;;9.43;;
55465;SDS011;41329;41.594;23.810;2023-06-04T05:37:41;9.48;;;8.98;;
55465;SDS011;41329;41.594;23.810;2023-06-04T05:40:10;10.82;;;10.23;;
55465;SDS011;41329;41.594;23.810;2023-06-04T05:42:37;10.30;;;9.65;;
55465;SDS011;41329;41.594;23.810;2023-06-04T05:45:03;10.85;;;10.13;;
55465;SDS011;41329;41.594;23.810;2023-06-04T05:47:29;10.30;;;9.70;;
55465;SDS011;41329;41.594;23.810;2023-06-04T05:49:55;9.90;;;9.30;;
55465;SDS011;41329;41.594;23.810;2023-06-04T05:52:21;10.05;;;9.32;;
55465;SDS011;41329;41.594;23.810;2023-06-04T05:54:46;9.60;;;8.95;;
55465;SDS011;41329;41.594;23.810;2023-06-04T05:57:11;9.65;;;8.95;;
55465;SDS011;41329;41.594;23.810;2023-06-04T05:59:37;10.45;;;9.85;;
55465;SDS011;41329;41.594;23.810;2023-06-04T06:02:02;9.73;;;9.13;;
55465;SDS011;41329;41.594;23.810;2023-06-04T06:04:28;9.98;;;9.35;;
55465;SDS011;41329;41.594;23.810;2023-06-04T06:06:53;9.18;;;8.77;;
55465;SDS011;41329;41.594;23.810;2023-06-04T06:09:19;10.80;;;10.20;;
55465;SDS011;41329;41.594;23.810;2023-06-04T06:11:44;10.40;;;9.82;;
55465;SDS011;41329;41.594;23.810;2023-06-04T06:14:10;12.25;;;11.35;;
55465;SDS011;41329;41.594;23.810;2023-06-04T06:16:35;11.52;;;10.82;;
55465;SDS011;41329;41.594;23.810;2023-06-04T06:19:01;185.50;;;133.07;;
55465;SDS011;41329;41.594;23.810;2023-06-04T06:21:27;318.77;;;183.57;;
55465;SDS011;41329;41.594;23.810;2023-06-04T06:23:53;216.48;;;194.90;;
55465;SDS011;41329;41.594;23.810;2023-06-04T06:26:19;27.38;;;25.80;;
55465;SDS011;41329;41.594;23.810;2023-06-04T06:28:45;11.30;;;10.50;;
55465;SDS011;41329;41.594;23.810;2023-06-04T06:31:10;10.30;;;9.70;;
55465;SDS011;41329;41.594;23.810;2023-06-04T06:33:35;14.13;;;12.98;;
55465;SDS011;41329;41.594;23.810;2023-06-04T06:36:15;11.02;;;10.40;;
55465;SDS011;41329;41.594;23.810;2023-06-04T06:38:43;10.38;;;9.70;;
55465;SDS011;41329;41.594;23.810;2023-06-04T06:41:09;11.10;;;10.50;;
55465;SDS011;41329;41.594;23.810;2023-06-04T06:43:34;23.15;;;21.17;;
55465;SDS011;41329;41.594;23.810;2023-06-04T06:46:00;10.88;;;10.27;;
55465;SDS011;41329;41.594;23.810;2023-06-04T06:48:25;16.95;;;15.55;;
55465;SDS011;41329;41.594;23.810;2023-06-04T06:50:50;13.95;;;11.32;;
55465;SDS011;41329;41.594;23.810;2023-06-04T06:53:16;9.93;;;9.40;;
55465;SDS011;41329;41.594;23.810;2023-06-04T06:55:41;10.38;;;9.88;;
55465;SDS011;41329;41.594;23.810;2023-06-04T06:58:06;10.23;;;9.65;;
55465;SDS011;41329;41.594;23.810;2023-06-04T07:00:32;10.35;;;9.05;;
55465;SDS011;41329;41.594;23.810;2023-06-04T07:02:57;11.07;;;10.48;;
55465;SDS011;41329;41.594;23.810;2023-06-04T07:05:23;14.02;;;13.07;;
55465;SDS011;41329;41.594;23.810;2023-06-04T07:07:48;10.65;;;9.88;;
55465;SDS011;41329;41.594;23.810;2023-06-04T07:10:13;10.82;;;10.07;;
55465;SDS011;41329;41.594;23.810;2023-06-04T07:12:39;10.80;;;10.15;;
55465;SDS011;41329;41.594;23.810;2023-06-04T07:15:05;10.13;;;9.32;;
55465;SDS011;41329;41.594;23.810;2023-06-04T07:17:31;9.95;;;9.25;;
55465;SDS011;41329;41.594;23.810;2023-06-04T07:19:57;9.32;;;8.63;;
55465;SDS011;41329;41.594;23.810;2023-06-04T07:22:23;8.43;;;7.60;;
55465;SDS011;41329;41.594;23.810;2023-06-04T07:24:48;9.18;;;8.68;;
55465;SDS011;41329;41.594;23.810;2023-06-04T07:27:14;8.95;;;8.35;;
55465;SDS011;41329;41.594;23.810;2023-06-04T07:29:42;9.27;;;8.77;;
55465;SDS011;41329;41.594;23.810;2023-06-04T07:32:08;8.48;;;7.88;;
55465;SDS011;41329;41.594;23.810;2023-06-04T07:34:34;9.68;;;9.07;;
55465;SDS011;41329;41.594;23.810;2023-06-04T07:36:59;9.13;;;8.40;;
55465;SDS011;41329;41.594;23.810;2023-06-04T07:39:25;8.25;;;7.85;;
55465;SDS011;41329;41.594;23.810;2023-06-04T07:41:51;8.63;;;8.02;;
55465;SDS011;41329;41.594;23.810;2023-06-04T07:44:16;8.85;;;8.45;;
55465;SDS011;41329;41.594;23.810;2023-06-04T07:46:42;8.93;;;8.27;;
55465;SDS011;41329;41.594;23.810;2023-06-04T07:49:08;8.68;;;8.07;;
55465;SDS011;41329;41.594;23.810;2023-06-04T07:51:33;9.98;;;9.48;;
55465;SDS011;41329;41.594;23.810;2023-06-04T07:53:59;10.25;;;9.75;;
55465;SDS011;41329;41.594;23.810;2023-06-04T07:56:25;9.45;;;8.90;;
55465;SDS011;41329;41.594;23.810;2023-06-04T07:58:51;9.50;;;8.90;;
55465;SDS011;41329;41.594;23.810;2023-06-04T08:01:17;8.90;;;8.48;;
55465;SDS011;41329;41.594;23.810;2023-06-04T08:03:42;9.70;;;9.20;;
55465;SDS011;41329;41.594;23.810;2023-06-04T08:06:07;9.10;;;8.55;;
55465;SDS011;41329;41.594;23.810;2023-06-04T08:08:34;9.18;;;8.45;;
55465;SDS011;41329;41.594;23.810;2023-06-04T08:11:00;9.38;;;8.88;;
55465;SDS011;41329;41.594;23.810;2023-06-04T08:13:25;8.75;;;8.25;;
55465;SDS011;41329;41.594;23.810;2023-06-04T08:15:51;9.43;;;8.57;;
55465;SDS011;41329;41.594;23.810;2023-06-04T08:18:16;9.80;;;9.10;;
55465;SDS011;41329;41.594;23.810;2023-06-04T08:20:42;8.68;;;8.27;;
55465;SDS011;41329;41.594;23.810;2023-06-04T08:23:07;8.60;;;7.63;;
55465;SDS011;41329;41.594;23.810;2023-06-04T08:25:32;8.43;;;7.93;;
55465;SDS011;41329;41.594;23.810;2023-06-04T08:27:58;8.48;;;8.00;;
55465;SDS011;41329;41.594;23.810;2023-06-04T08:30:24;7.95;;;7.45;;
55465;SDS011;41329;41.594;23.810;2023-06-04T08:32:52;7.15;;;6.75;;
55465;SDS011;41329;41.594;23.810;2023-06-04T08:35:18;6.07;;;5.70;;
55465;SDS011;41329;41.594;23.810;2023-06-04T08:37:43;6.95;;;6.28;;
55465;SDS011;41329;41.594;23.810;2023-06-04T08:40:08;5.68;;;5.38;;
55465;SDS011;41329;41.594;23.810;2023-06-04T08:42:37;6.43;;;6.03;;
55465;SDS011;41329;41.594;23.810;2023-06-04T08:45:07;6.38;;;5.85;;
55465;SDS011;41329;41.594;23.810;2023-06-04T08:47:36;6.25;;;5.72;;
55465;SDS011;41329;41.594;23.810;2023-06-04T08:50:02;5.70;;;5.28;;
55465;SDS011;41329;41.594;23.810;2023-06-04T08:52:34;5.22;;;4.80;;
55465;SDS011;41329;41.594;23.810;2023-06-04T08:55:00;5.25;;;4.95;;
55465;SDS011;41329;41.594;23.810;2023-06-04T08:57:27;4.75;;;4.43;;
55465;SDS011;41329;41.594;23.810;2023-06-04T08:59:55;4.43;;;4.13;;
55465;SDS011;41329;41.594;23.810;2023-06-04T09:02:20;4.22;;;3.95;;
55465;SDS011;41329;41.594;23.810;2023-06-04T09:04:46;6.05;;;4.65;;
55465;SDS011;41329;41.594;23.810;2023-06-04T09:07:12;4.80;;;4.32;;
55465;SDS011;41329;41.594;23.810;2023-06-04T09:09:39;4.45;;;4.05;;
55465;SDS011;41329;41.594;23.810;2023-06-04T09:12:09;3.50;;;3.22;;
55465;SDS011;41329;41.594;23.810;2023-06-04T09:14:36;3.65;;;3.35;;
55465;SDS011;41329;41.594;23.810;2023-06-04T09:17:01;6.55;;;3.80;;
55465;SDS011;41329;41.594;23.810;2023-06-04T09:19:27;4.20;;;3.85;;
55465;SDS011;41329;41.594;23.810;2023-06-04T09:21:55;4.18;;;3.78;;
55465;SDS011;41329;41.594;23.810;2023-06-04T09:24:22;4.25;;;3.83;;
55465;SDS011;41329;41.594;23.810;2023-06-04T09:26:49;4.30;;;3.97;;
55465;SDS011;41329;41.594;23.810;2023-06-04T09:29:15;3.78;;;3.58;;
55465;SDS011;41329;41.594;23.810;2023-06-04T09:31:44;3.78;;;3.45;;
55465;SDS011;41329;41.594;23.810;2023-06-04T09:34:11;6.78;;;3.70;;
55465;SDS011;41329;41.594;23.810;2023-06-04T09:36:37;3.88;;;3.50;;
55465;SDS011;41329;41.594;23.810;2023-06-04T09:39:03;5.55;;;3.42;;
55465;SDS011;41329;41.594;23.810;2023-06-04T09:41:30;4.30;;;4.00;;
55465;SDS011;41329;41.594;23.810;2023-06-04T09:43:59;3.50;;;3.30;;
55465;SDS011;41329;41.594;23.810;2023-06-04T09:46:28;5.75;;;3.33;;
55465;SDS011;41329;41.594;23.810;2023-06-04T09:49:03;4.18;;;3.42;;
55465;SDS011;41329;41.594;23.810;2023-06-04T09:51:30;4.65;;;4.35;;
55465;SDS011;41329;41.594;23.810;2023-06-04T09:53:57;3.80;;;3.25;;
55465;SDS011;41329;41.594;23.810;2023-06-04T09:56:24;3.67;;;3.47;;
55465;SDS011;41329;41.594;23.810;2023-06-04T09:58:55;3.65;;;3.45;;
55465;SDS011;41329;41.594;23.810;2023-06-04T10:01:23;3.92;;;3.47;;
55465;SDS011;41329;41.594;23.810;2023-06-04T10:03:51;3.67;;;3.47;;
55465;SDS011;41329;41.594;23.810;2023-06-04T10:06:18;3.50;;;3.30;;
55465;SDS011;41329;41.594;23.810;2023-06-04T10:08:46;4.30;;;4.10;;
55465;SDS011;41329;41.594;23.810;2023-06-04T10:11:14;4.10;;;3.80;;
55465;SDS011;41329;41.594;23.810;2023-06-04T10:13:47;3.47;;;3.22;;
55465;SDS011;41329;41.594;23.810;2023-06-04T10:16:16;4.78;;;3.80;;
55465;SDS011;41329;41.594;23.810;2023-06-04T10:18:45;3.78;;;3.47;;
55465;SDS011;41329;41.594;23.810;2023-06-04T10:21:10;3.97;;;3.78;;
55465;SDS011;41329;41.594;23.810;2023-06-04T10:23:38;3.42;;;3.08;;
55465;SDS011;41329;41.594;23.810;2023-06-04T10:26:05;3.63;;;3.38;;
55465;SDS011;41329;41.594;23.810;2023-06-04T10:28:31;3.80;;;3.60;;
55465;SDS011;41329;41.594;23.810;2023-06-04T10:30:58;4.88;;;3.75;;
55465;SDS011;41329;41.594;23.810;2023-06-04T10:33:24;4.10;;;3.63;;
55465;SDS011;41329;41.594;23.810;2023-06-04T10:35:49;4.30;;;3.78;;
55465;SDS011;41329;41.594;23.810;2023-06-04T10:38:18;4.10;;;3.80;;
55465;SDS011;41329;41.594;23.810;2023-06-04T10:40:45;3.10;;;2.90;;
55465;SDS011;41329;41.594;23.810;2023-06-04T10:43:12;4.07;;;3.65;;
55465;SDS011;41329;41.594;23.810;2023-06-04T10:45:38;3.22;;;3.03;;
55465;SDS011;41329;41.594;23.810;2023-06-04T10:48:05;4.13;;;3.72;;
55465;SDS011;41329;41.594;23.810;2023-06-04T10:50:32;3.58;;;3.05;;
55465;SDS011;41329;41.594;23.810;2023-06-04T10:52:58;3.33;;;2.90;;
55465;SDS011;41329;41.594;23.810;2023-06-04T10:55:28;4.00;;;3.60;;
55465;SDS011;41329;41.594;23.810;2023-06-04T10:58:00;3.60;;;3.30;;
55465;SDS011;41329;41.594;23.810;2023-06-04T11:00:36;3.22;;;2.95;;
55465;SDS011;41329;41.594;23.810;2023-06-04T11:03:10;3.60;;;3.30;;
55465;SDS011;41329;41.594;23.810;2023-06-04T11:05:43;3.00;;;2.80;;
55465;SDS011;41329;41.594;23.810;2023-06-04T11:08:12;4.63;;;3.75;;
55465;SDS011;41329;41.594;23.810;2023-06-04T11:10:40;4.80;;;3.47;;
55465;SDS011;41329;41.594;23.810;2023-06-04T11:13:07;3.72;;;3.35;;
55465;SDS011;41329;41.594;23.810;2023-06-04T11:18:05;4.72;;;4.38;;
55465;SDS011;41329;41.594;23.810;2023-06-04T11:20:30;2.90;;;2.70;;
55465;SDS011;41329;41.594;23.810;2023-06-04T11:22:56;5.20;;;3.20;;
55465;SDS011;41329;41.594;23.810;2023-06-04T11:25:24;4.38;;;3.30;;
55465;SDS011;41329;41.594;23.810;2023-06-04T11:27:52;3.40;;;3.10;;
55465;SDS011;41329;41.594;23.810;2023-06-04T11:30:19;3.20;;;2.90;;
55465;SDS011;41329;41.594;23.810;2023-06-04T11:32:45;3.85;;;2.97;;
55465;SDS011;41329;41.594;23.810;2023-06-04T11:35:10;4.15;;;3.83;;
55465;SDS011;41329;41.594;23.810;2023-06-04T11:37:36;3.72;;;3.20;;
55465;SDS011;41329;41.594;23.810;2023-06-04T11:40:03;3.20;;;3.00;;
55465;SDS011;41329;41.594;23.810;2023-06-04T11:42:49;3.35;;;3.05;;
55465;SDS011;41329;41.594;23.810;2023-06-04T11:45:16;3.15;;;2.85;;
55465;SDS011;41329;41.594;23.810;2023-06-04T11:47:53;2.97;;;2.78;;
55465;SDS011;41329;41.594;23.810;2023-06-04T11:50:21;6.10;;;3.47;;
55465;SDS011;41329;41.594;23.810;2023-06-04T11:52:47;3.05;;;2.70;;
55465;SDS011;41329;41.594;23.810;2023-06-04T11:55:13;4.72;;;3.25;;
55465;SDS011;41329;41.594;23.810;2023-06-04T11:57:39;3.63;;;3.30;;
55465;SDS011;41329;41.594;23.810;2023-06-04T12:00:07;3.83;;;3.50;;
55465;SDS011;41329;41.594;23.810;2023-06-04T12:05:13;3.70;;;3.40;;
55465;SDS011;41329;41.594;23.810;2023-06-04T12:07:39;3.63;;;3.35;;
55465;SDS011;41329;41.594;23.810;2023-06-04T12:10:06;3.55;;;3.25;;
55465;SDS011;41329;41.594;23.810;2023-06-04T12:12:33;6.95;;;3.40;;
55465;SDS011;41329;41.594;23.810;2023-06-04T12:15:00;3.25;;;3.00;;
55465;SDS011;41329;41.594;23.810;2023-06-04T12:17:25;4.10;;;3.80;;
55465;SDS011;41329;41.594;23.810;2023-06-04T12:19:51;3.78;;;3.47;;
55465;SDS011;41329;41.594;23.810;2023-06-04T12:22:18;3.95;;;3.25;;
55465;SDS011;41329;41.594;23.810;2023-06-04T12:24:53;4.30;;;3.53;;
55465;SDS011;41329;41.594;23.810;2023-06-04T12:27:21;4.00;;;3.70;;
55465;SDS011;41329;41.594;23.810;2023-06-04T12:30:04;4.65;;;3.85;;
55465;SDS011;41329;41.594;23.810;2023-06-04T12:32:34;5.35;;;4.25;;
55465;SDS011;41329;41.594;23.810;2023-06-04T12:35:00;3.87;;;3.57;;
55465;SDS011;41329;41.594;23.810;2023-06-04T12:37:25;7.80;;;3.75;;
55465;SDS011;41329;41.594;23.810;2023-06-04T12:39:51;8.75;;;4.60;;
55465;SDS011;41329;41.594;23.810;2023-06-04T12:42:16;9.13;;;4.97;;
55465;SDS011;41329;41.594;23.810;2023-06-04T12:44:44;5.40;;;4.45;;
55465;SDS011;41329;41.594;23.810;2023-06-04T12:47:09;5.55;;;5.00;;
55465;SDS011;41329;41.594;23.810;2023-06-04T12:49:35;6.88;;;4.07;;
55465;SDS011;41329;41.594;23.810;2023-06-04T12:52:01;3.22;;;3.03;;
55465;SDS011;41329;41.594;23.810;2023-06-04T12:54:26;4.20;;;3.70;;
55465;SDS011;41329;41.594;23.810;2023-06-04T12:56:52;6.70;;;3.50;;
55465;SDS011;41329;41.594;23.810;2023-06-04T12:59:18;4.00;;;3.60;;
55465;SDS011;41329;41.594;23.810;2023-06-04T13:01:43;3.45;;;3.25;;
55465;SDS011;41329;41.594;23.810;2023-06-04T13:04:09;10.02;;;3.80;;
55465;SDS011;41329;41.594;23.810;2023-06-04T13:06:35;3.65;;;3.25;;
55465;SDS011;41329;41.594;23.810;2023-06-04T13:09:02;3.38;;;3.15;;
55465;SDS011;41329;41.594;23.810;2023-06-04T13:11:28;4.97;;;3.47;;
55465;SDS011;41329;41.594;23.810;2023-06-04T13:13:54;4.30;;;3.90;;
55465;SDS011;41329;41.594;23.810;2023-06-04T13:16:19;3.33;;;3.08;;
55465;SDS011;41329;41.594;23.810;2023-06-04T13:18:44;4.05;;;3.55;;
55465;SDS011;41329;41.594;23.810;2023-06-04T13:21:10;2.70;;;2.50;;
55465;SDS011;41329;41.594;23.810;2023-06-04T13:23:35;2.05;;;1.95;;
55465;SDS011;41329;41.594;23.810;2023-06-04T13:26:00;2.03;;;1.90;;
55465;SDS011;41329;41.594;23.810;2023-06-04T13:28:26;1.75;;;1.52;;
55465;SDS011;41329;41.594;23.810;2023-06-04T13:30:52;5.47;;;1.98;;
55465;SDS011;41329;41.594;23.810;2023-06-04T13:33:17;2.80;;;1.67;;
55465;SDS011;41329;41.594;23.810;2023-06-04T13:35:44;2.95;;;1.33;;
55465;SDS011;41329;41.594;23.810;2023-06-04T13:38:09;1.55;;;1.33;;
55465;SDS011;41329;41.594;23.810;2023-06-04T13:40:35;8.70;;;2.90;;
55465;SDS011;41329;41.594;23.810;2023-06-04T13:43:01;2.88;;;2.65;;
55465;SDS011;41329;41.594;23.810;2023-06-04T13:45:27;2.38;;;1.70;;
55465;SDS011;41329;41.594;23.810;2023-06-04T13:47:53;4.55;;;3.25;;
55465;SDS011;41329;41.594;23.810;2023-06-04T13:50:18;2.92;;;2.20;;
55465;SDS011;41329;41.594;23.810;2023-06-04T13:52:44;4.57;;;3.03;;
55465;SDS011;41329;41.594;23.810;2023-06-04T13:55:11;6.20;;;5.63;;
55465;SDS011;41329;41.594;23.810;2023-06-04T13:57:37;5.70;;;3.63;;
55465;SDS011;41329;41.594;23.810;2023-06-04T14:00:03;4.75;;;3.40;;
55465;SDS011;41329;41.594;23.810;2023-06-04T14:02:29;3.92;;;3.58;;
55465;SDS011;41329;41.594;23.810;2023-06-04T14:04:54;3.30;;;3.00;;
55465;SDS011;41329;41.594;23.810;2023-06-04T14:07:20;5.63;;;3.05;;
55465;SDS011;41329;41.594;23.810;2023-06-04T14:09:47;24.60;;;22.25;;
55465;SDS011;41329;41.594;23.810;2023-06-04T14:12:13;18.00;;;16.42;;
55465;SDS011;41329;41.594;23.810;2023-06-04T14:14:42;4.15;;;3.85;;
55465;SDS011;41329;41.594;23.810;2023-06-04T14:17:08;5.30;;;4.80;;
55465;SDS011;41329;41.594;23.810;2023-06-04T14:19:33;11.93;;;11.13;;
55465;SDS011;41329;41.594;23.810;2023-06-04T14:21:59;10.30;;;6.53;;
55465;SDS011;41329;41.594;23.810;2023-06-04T14:24:24;6.53;;;6.03;;
55465;SDS011;41329;41.594;23.810;2023-06-04T14:26:50;3.45;;;3.20;;
55465;SDS011;41329;41.594;23.810;2023-06-04T14:29:15;2.70;;;2.60;;
55465;SDS011;41329;41.594;23.810;2023-06-04T14:31:41;5.28;;;3.38;;
55465;SDS011;41329;41.594;23.810;2023-06-04T14:34:06;6.30;;;4.20;;
55465;SDS011;41329;41.594;23.810;2023-06-04T14:36:33;3.53;;;3.28;;
55465;SDS011;41329;41.594;23.810;2023-06-04T14:38:58;3.50;;;3.28;;